Time;durP1;ratioP1;P1;durP2;ratioP2;P2;SDS_P1;SDS_P2;PMS_P1;PMS_P2;Temp;Humidity;BMP_temperature;BMP_pressure;BME280_temperature;BME280_humidity;BME280_pressure;Samples;Min_cycle;Max_cycle;Signal;HPM_P1;HPM_P2
2022/01/26 00:06:28;;;;;;;41.37;18.47;;;3.00;55.70;;;;;;5106949;27;20223;-78
2022/01/26 00:08:58;;;;;;;37.30;18.53;;;3.00;55.70;;;;;;5100797;27;20192;-78
2022/01/26 00:11:30;;;;;;;39.00;18.13;;;2.90;55.80;;;;;;5106385;28;20196;-78
2022/01/26 00:14:00;;;;;;;32.87;16.90;;;2.90;55.80;;;;;;5107464;27;20189;-77
2022/01/26 00:16:36;;;;;;;35.07;14.87;;;2.90;56.00;;;;;;5102913;27;20200;-78
2022/01/26 00:19:07;;;;;;;31.67;14.47;;;2.90;56.10;;;;;;5109029;28;20203;-78
2022/01/26 00:21:40;;;;;;;36.10;15.47;;;2.90;56.20;;;;;;5107775;27;20209;-77
2022/01/26 00:27:29;;;;;;;27.07;12.87;;;2.90;56.00;;;;;;5107758;27;20206;-77
2022/01/26 00:31:12;;;;;;;28.67;12.90;;;2.90;55.90;;;;;;5105738;27;20195;-77
2022/01/26 00:34:17;;;;;;;30.50;13.70;;;2.80;55.80;;;;;;5106041;27;20193;-77
2022/01/26 00:38:47;;;;;;;27.00;13.23;;;2.90;55.70;;;;;;5105390;27;20234;-77
2022/01/26 00:41:19;;;;;;;28.13;13.57;;;2.90;55.70;;;;;;5108646;28;20223;-77
2022/01/26 00:43:53;;;;;;;29.40;13.87;;;2.90;55.70;;;;;;5107307;27;20564;-77
2022/01/26 00:46:23;;;;;;;34.77;14.73;;;2.90;55.70;;;;;;5108837;28;20180;-77
2022/01/26 00:48:52;;;;;;;25.03;12.83;;;3.00;55.70;;;;;;5106909;27;20193;-78
2022/01/26 00:51:22;;;;;;;32.40;14.27;;;3.00;55.80;;;;;;5111334;28;20192;-77
2022/01/26 00:53:59;;;;;;;30.77;14.00;;;3.00;55.70;;;;;;5109228;27;20189;-77
2022/01/26 00:56:28;;;;;;;26.17;12.23;;;3.00;55.70;;;;;;5104994;28;20556;-78
2022/01/26 00:58:57;;;;;;;28.07;13.43;;;3.10;55.80;;;;;;5100326;27;20197;-78
2022/01/26 01:01:25;;;;;;;27.73;13.03;;;3.00;55.80;;;;;;5101495;27;20749;-77
2022/01/26 01:03:54;;;;;;;28.43;12.17;;;3.00;55.70;;;;;;5104072;28;20196;-84
2022/01/26 01:06:26;;;;;;;22.47;11.53;;;3.10;55.70;;;;;;5101547;28;20662;-78
2022/01/26 01:08:57;;;;;;;28.50;12.70;;;3.10;55.90;;;;;;5099236;28;20193;-79
2022/01/26 01:11:27;;;;;;;25.00;12.43;;;3.10;55.90;;;;;;5105715;28;20193;-77
2022/01/26 01:13:57;;;;;;;27.83;12.27;;;3.10;55.90;;;;;;5104506;28;20201;-78
2022/01/26 01:16:26;;;;;;;23.37;11.27;;;3.10;56.00;;;;;;5102987;28;20197;-78
2022/01/26 01:19:01;;;;;;;25.90;12.20;;;3.10;55.90;;;;;;5101852;27;20246;-79
2022/01/26 01:22:04;;;;;;;22.40;11.97;;;3.10;55.90;;;;;;5103496;28;20208;-77
2022/01/26 01:24:57;;;;;;;26.47;12.00;;;3.10;55.90;;;;;;5098968;28;20197;-78
2022/01/26 01:30:22;;;;;;;25.93;11.47;;;3.00;56.10;;;;;;5101239;28;20189;-77
2022/01/26 01:32:54;;;;;;;27.10;13.52;;;3.00;56.00;;;;;;5098715;28;20965;-77
2022/01/26 01:35:22;;;;;;;27.57;11.93;;;3.00;56.40;;;;;;5104606;28;20193;-78
2022/01/26 01:37:52;;;;;;;25.90;11.73;;;3.00;56.40;;;;;;5101536;28;20197;-76
2022/01/26 01:40:21;;;;;;;24.03;11.60;;;3.00;56.40;;;;;;5099476;27;20200;-78
2022/01/26 01:42:50;;;;;;;23.93;10.83;;;3.00;56.30;;;;;;5101544;28;20217;-78
2022/01/26 01:45:18;;;;;;;25.57;11.33;;;3.00;56.30;;;;;;5103599;28;20317;-79
2022/01/26 01:47:46;;;;;;;24.00;11.70;;;3.00;56.40;;;;;;5099993;27;20649;-78
2022/01/26 01:50:15;;;;;;;22.20;11.87;;;2.90;56.40;;;;;;5102278;28;20201;-78
2022/01/26 01:52:43;;;;;;;25.83;11.90;;;2.90;56.40;;;;;;5102183;28;20302;-79
2022/01/26 01:55:11;;;;;;;25.93;11.17;;;2.90;56.30;;;;;;5100757;28;20193;-77
2022/01/26 01:57:41;;;;;;;25.53;11.60;;;2.90;56.30;;;;;;5100856;28;20200;-77
2022/01/26 02:00:11;;;;;;;23.80;11.37;;;2.90;56.30;;;;;;5101006;27;20197;-78
2022/01/26 02:02:39;;;;;;;27.10;11.10;;;2.90;56.30;;;;;;5096475;28;20215;-78
2022/01/26 02:05:08;;;;;;;28.40;12.07;;;2.90;56.30;;;;;;5095962;27;20242;-77
2022/01/26 02:07:37;;;;;;;25.17;11.27;;;2.90;56.50;;;;;;5100919;27;20751;-77
2022/01/26 02:10:06;;;;;;;28.53;12.47;;;2.90;56.70;;;;;;5101393;28;20192;-77
2022/01/26 02:12:37;;;;;;;25.50;12.13;;;2.90;56.80;;;;;;5096058;28;20258;-78
2022/01/26 02:15:13;;;;;;;26.53;11.23;;;2.80;56.70;;;;;;5102975;28;20189;-77
2022/01/26 02:18:17;;;;;;;26.27;13.77;;;2.80;57.10;;;;;;5101414;28;20464;-78
2022/01/26 02:21:12;;;;;;;23.83;10.63;;;2.80;57.20;;;;;;5099104;28;20212;-78
2022/01/26 02:52:01;;;;;;;29.40;11.13;;;2.50;58.80;;;;;;5102302;28;20190;-77
2022/01/26 02:54:46;;;;;;;26.63;10.37;;;2.50;59.00;;;;;;5103389;28;20194;-77
2022/01/26 02:57:35;;;;;;;23.10;10.87;;;2.40;58.80;;;;;;5102682;28;20195;-77
2022/01/26 03:00:23;;;;;;;26.27;10.77;;;2.40;59.00;;;;;;5102954;28;20193;-77
2022/01/26 03:02:56;;;;;;;21.83;10.23;;;2.40;59.20;;;;;;5097233;28;20238;-78
2022/01/26 03:05:31;;;;;;;30.33;11.73;;;2.40;59.30;;;;;;5098541;28;20765;-77
2022/01/26 03:08:03;;;;;;;20.37;10.67;;;2.40;59.50;;;;;;5102189;28;20196;-77
2022/01/26 03:10:42;;;;;;;20.00;10.70;;;2.40;59.80;;;;;;5103211;28;20727;-77
2022/01/26 03:13:15;;;;;;;27.13;11.13;;;2.40;59.70;;;;;;5101699;28;20245;-78
2022/01/26 03:15:48;;;;;;;24.17;11.53;;;2.40;59.80;;;;;;5100084;28;20717;-77
2022/01/26 03:21:05;;;;;;;24.37;10.50;;;2.40;60.10;;;;;;5100869;28;20742;-77
2022/01/26 03:29:25;;;;;;;26.20;13.98;;;2.30;61.40;;;;;;5099378;28;20471;-77
2022/01/26 03:34:36;;;;;;;23.93;11.87;;;2.20;62.10;;;;;;5098941;28;20863;-77
2022/01/26 03:37:07;;;;;;;27.67;12.43;;;2.20;61.90;;;;;;5094249;28;20193;-77
2022/01/26 03:39:42;;;;;;;26.60;11.93;;;2.30;61.80;;;;;;5100406;28;20187;-77
2022/01/26 03:42:15;;;;;;;22.60;11.53;;;2.30;61.90;;;;;;5102387;28;20199;-79
2022/01/26 03:44:44;;;;;;;27.60;12.87;;;2.30;61.80;;;;;;5103776;28;20253;-78
2022/01/26 03:47:12;;;;;;;27.10;11.27;;;2.30;61.80;;;;;;5102156;28;20773;-79
2022/01/26 03:49:41;;;;;;;27.17;12.70;;;2.30;62.00;;;;;;5101251;28;20271;-79
2022/01/26 03:52:11;;;;;;;27.60;12.47;;;2.30;62.40;;;;;;5096250;28;20186;-78
2022/01/26 03:54:40;;;;;;;24.20;12.00;;;2.30;62.90;;;;;;5099351;28;20733;-79
2022/01/26 03:57:08;;;;;;;24.07;11.00;;;2.20;62.50;;;;;;5103142;28;20678;-78
2022/01/26 03:59:38;;;;;;;23.97;11.63;;;2.30;62.40;;;;;;5099899;28;20196;-78
2022/01/26 04:02:06;;;;;;;25.13;11.73;;;2.30;62.50;;;;;;5099568;28;20612;-79
2022/01/26 04:04:42;;;;;;;29.07;12.57;;;2.30;62.90;;;;;;5101419;28;20199;-79
2022/01/26 04:07:10;;;;;;;21.87;10.40;;;2.20;63.40;;;;;;5101169;28;20204;-79
2022/01/26 04:09:39;;;;;;;28.60;12.43;;;2.20;63.30;;;;;;5101247;28;20197;-78
2022/01/26 04:12:08;;;;;;;28.57;13.07;;;2.20;63.30;;;;;;5097456;28;20257;-79
2022/01/26 04:14:40;;;;;;;26.30;12.43;;;2.20;63.40;;;;;;5101872;28;20229;-78
2022/01/26 04:17:09;;;;;;;30.57;13.17;;;2.10;64.00;;;;;;5099500;28;20193;-78
2022/01/26 04:19:39;;;;;;;27.63;12.70;;;2.10;64.00;;;;;;5099680;28;20197;-78
2022/01/26 04:22:16;;;;;;;24.40;11.43;;;2.10;63.80;;;;;;5100236;28;20195;-80
2022/01/26 04:24:48;;;;;;;29.50;13.50;;;2.10;64.00;;;;;;5098811;28;20184;-80
2022/01/26 04:27:22;;;;;;;29.40;12.83;;;2.00;64.70;;;;;;5090814;28;20279;-78
2022/01/26 04:29:52;;;;;;;27.07;13.20;;;1.90;64.80;;;;;;5104338;28;20192;-79
2022/01/26 04:32:20;;;;;;;22.60;11.43;;;1.90;65.10;;;;;;5103383;28;20185;-78
2022/01/26 04:34:49;;;;;;;31.77;13.47;;;1.80;65.20;;;;;;5103125;27;20218;-78
2022/01/26 04:37:28;;;;;;;27.00;12.60;;;1.80;65.20;;;;;;5105291;28;20299;-79
2022/01/26 04:40:00;;;;;;;28.40;13.00;;;1.70;65.20;;;;;;5104152;27;20828;-79
2022/01/26 04:42:38;;;;;;;26.57;12.00;;;1.70;65.40;;;;;;5105779;28;20188;-78
2022/01/26 04:45:10;;;;;;;26.90;12.47;;;1.70;65.20;;;;;;5102837;28;20255;-79
2022/01/26 04:47:40;;;;;;;27.87;13.20;;;1.70;65.20;;;;;;5104147;28;20243;-78
2022/01/26 04:50:11;;;;;;;29.13;13.13;;;1.70;64.90;;;;;;5104003;28;20193;-78
2022/01/26 04:52:40;;;;;;;27.67;11.17;;;1.80;64.80;;;;;;5103002;28;20546;-79
2022/01/26 04:55:10;;;;;;;25.30;12.33;;;1.80;64.70;;;;;;5102595;28;20191;-79
2022/01/26 04:57:38;;;;;;;28.53;11.80;;;1.80;64.60;;;;;;5105471;28;20202;-78
2022/01/26 05:00:10;;;;;;;36.05;15.13;;;1.80;64.50;;;;;;5105177;28;20444;-79
2022/01/26 05:02:39;;;;;;;33.30;13.77;;;1.80;64.30;;;;;;5105716;28;20190;-79
2022/01/26 05:05:08;;;;;;;32.60;13.33;;;1.90;64.30;;;;;;5101898;28;20753;-79
2022/01/26 05:07:37;;;;;;;26.57;12.80;;;1.90;64.10;;;;;;5104856;28;20199;-78
2022/01/26 05:10:06;;;;;;;33.47;14.40;;;1.90;64.10;;;;;;5101433;28;20194;-78
2022/01/26 05:12:35;;;;;;;32.37;12.97;;;1.90;64.20;;;;;;5095925;28;20198;-79
2022/01/26 05:15:05;;;;;;;24.33;11.73;;;1.90;63.90;;;;;;5103126;28;20198;-78
2022/01/26 05:17:36;;;;;;;36.37;13.73;;;1.90;63.90;;;;;;5103272;28;20195;-79
2022/01/26 05:20:07;;;;;;;27.90;11.67;;;1.90;63.90;;;;;;5097977;28;20206;-78
2022/01/26 05:22:35;;;;;;;32.90;13.60;;;1.90;63.90;;;;;;5100414;28;20199;-78
2022/01/26 05:25:05;;;;;;;28.50;13.17;;;1.90;63.80;;;;;;5103240;27;20728;-78
2022/01/26 05:27:33;;;;;;;30.13;12.67;;;1.90;63.70;;;;;;5104366;28;20196;-78
2022/01/26 05:30:02;;;;;;;32.30;12.23;;;2.00;63.60;;;;;;5102880;28;20200;-78
2022/01/26 05:32:30;;;;;;;29.73;14.07;;;2.00;63.60;;;;;;5103662;28;20192;-79
2022/01/26 05:35:00;;;;;;;28.50;12.97;;;2.00;63.50;;;;;;5098401;28;20200;-78
2022/01/26 05:37:28;;;;;;;34.90;13.57;;;2.10;63.50;;;;;;5104657;28;20207;-78
2022/01/26 05:39:58;;;;;;;30.10;13.07;;;2.10;63.40;;;;;;5099740;28;20210;-78
2022/01/26 05:42:26;;;;;;;28.87;12.53;;;2.10;63.20;;;;;;5100289;27;20195;-78
2022/01/26 05:45:00;;;;;;;29.77;13.63;;;2.10;63.10;;;;;;5102210;27;20220;-78
2022/01/26 05:47:31;;;;;;;35.50;13.20;;;2.10;62.90;;;;;;5103328;28;20207;-79
2022/01/26 05:50:02;;;;;;;28.83;13.43;;;2.10;62.80;;;;;;5105353;28;20190;-78
2022/01/26 05:52:30;;;;;;;29.40;12.90;;;2.20;62.80;;;;;;5103409;28;20304;-79
2022/01/26 05:54:59;;;;;;;33.30;13.13;;;2.20;62.70;;;;;;5104791;28;20256;-78
2022/01/26 05:57:27;;;;;;;25.13;12.10;;;2.20;62.40;;;;;;5102674;28;20283;-78
2022/01/26 05:59:55;;;;;;;30.77;13.30;;;2.20;62.40;;;;;;5104822;28;20199;-78
2022/01/26 06:02:24;;;;;;;26.27;12.03;;;2.20;62.30;;;;;;5104820;28;20453;-79
2022/01/26 06:04:52;;;;;;;28.17;12.70;;;2.30;62.30;;;;;;5101830;28;20243;-78
2022/01/26 06:07:22;;;;;;;27.33;12.53;;;2.30;62.30;;;;;;5101802;27;20241;-77
2022/01/26 06:09:50;;;;;;;28.10;12.57;;;2.30;62.20;;;;;;5098007;28;20491;-78
2022/01/26 06:12:18;;;;;;;24.70;13.00;;;2.30;61.90;;;;;;5105057;28;20199;-78
2022/01/26 06:14:47;;;;;;;31.80;14.47;;;2.30;61.50;;;;;;5104249;28;20198;-79
2022/01/26 06:17:15;;;;;;;29.77;12.77;;;2.30;62.40;;;;;;5092882;28;20184;-78
2022/01/26 06:19:43;;;;;;;42.47;13.50;;;2.20;61.50;;;;;;5098666;28;20191;-78
2022/01/26 06:22:12;;;;;;;28.27;13.93;;;2.20;61.50;;;;;;5103831;28;20179;-78
2022/01/26 06:24:42;;;;;;;26.47;12.40;;;2.20;61.60;;;;;;5103245;28;20226;-78
2022/01/26 06:27:10;;;;;;;26.70;11.63;;;2.20;61.60;;;;;;5103380;28;20584;-78
2022/01/26 06:29:38;;;;;;;31.53;13.20;;;2.20;61.50;;;;;;5104310;28;20753;-78
2022/01/26 06:32:08;;;;;;;27.97;12.53;;;2.20;61.50;;;;;;5102868;28;20203;-77
2022/01/26 06:34:39;;;;;;;30.33;13.50;;;2.20;62.30;;;;;;5105160;28;20235;-77
2022/01/26 06:37:08;;;;;;;28.00;12.07;;;2.20;61.50;;;;;;5099884;28;20248;-77
2022/01/26 06:39:36;;;;;;;31.97;13.13;;;2.20;61.60;;;;;;5106689;28;20201;-77
2022/01/26 06:42:12;;;;;;;29.07;12.33;;;2.10;61.60;;;;;;5105650;28;20198;-75
2022/01/26 06:44:51;;;;;;;27.47;13.10;;;2.10;61.70;;;;;;5104195;28;20881;-77
2022/01/26 06:47:34;;;;;;;27.77;12.98;;;2.20;61.60;;;;;;5104005;28;20640;-77
2022/01/26 06:50:05;;;;;;;23.83;13.20;;;2.20;61.50;;;;;;5105187;28;20779;-78
2022/01/26 06:52:33;;;;;;;29.20;13.43;;;2.20;61.30;;;;;;5103915;28;20195;-75
2022/01/26 06:55:04;;;;;;;27.43;14.27;;;2.20;61.20;;;;;;5105271;28;20208;-77
2022/01/26 06:57:34;;;;;;;29.60;12.83;;;2.30;61.20;;;;;;5103833;28;20702;-77
2022/01/26 07:00:02;;;;;;;37.27;15.20;;;2.30;61.10;;;;;;5103744;28;20436;-77
2022/01/26 07:02:30;;;;;;;29.30;13.13;;;2.30;61.20;;;;;;5104663;28;20666;-76
2022/01/26 07:04:59;;;;;;;32.47;12.70;;;2.30;61.20;;;;;;5102297;28;20253;-78
2022/01/26 07:07:27;;;;;;;28.40;13.17;;;2.40;61.10;;;;;;5104953;28;20190;-75
2022/01/26 07:09:55;;;;;;;32.23;13.57;;;2.40;60.90;;;;;;5104621;28;20286;-77
2022/01/26 07:12:23;;;;;;;29.67;13.10;;;2.50;60.80;;;;;;5104881;28;20661;-77
2022/01/26 07:23:11;;;;;;;29.70;12.77;;;2.50;60.20;;;;;;5102084;28;20203;-77
2022/01/26 07:25:40;;;;;;;28.67;13.67;;;2.50;60.20;;;;;;5104209;28;20223;-75
2022/01/26 07:28:08;;;;;;;27.17;12.93;;;2.60;60.20;;;;;;5104356;28;20611;-75
2022/01/26 07:30:38;;;;;;;30.63;13.60;;;2.60;60.10;;;;;;5104213;28;20698;-77
2022/01/26 07:33:07;;;;;;;34.77;14.00;;;2.70;60.00;;;;;;5104476;28;20190;-77
2022/01/26 07:35:36;;;;;;;34.43;13.50;;;2.70;59.90;;;;;;5104391;28;20196;-76
2022/01/26 07:38:05;;;;;;;28.50;11.93;;;2.80;59.90;;;;;;5104075;28;20861;-76
2022/01/26 07:40:34;;;;;;;32.27;14.63;;;2.80;59.80;;;;;;5104138;28;20245;-77
2022/01/26 07:43:02;;;;;;;29.57;13.80;;;2.80;59.70;;;;;;5102491;28;20204;-78
2022/01/26 07:45:30;;;;;;;32.03;13.67;;;2.90;60.00;;;;;;5104015;28;20411;-78
2022/01/26 07:48:00;;;;;;;34.67;13.73;;;2.90;60.10;;;;;;5087648;28;20189;-77
2022/01/26 07:50:29;;;;;;;33.80;14.10;;;3.00;60.10;;;;;;5102704;28;20187;-77
2022/01/26 07:52:59;;;;;;;33.60;13.00;;;3.10;60.00;;;;;;5103710;28;20188;-78
2022/01/26 07:55:28;;;;;;;37.33;14.50;;;3.10;60.00;;;;;;5103653;28;20260;-78
2022/01/26 07:57:57;;;;;;;36.50;14.03;;;3.10;59.90;;;;;;5101981;28;20772;-78
2022/01/26 08:00:25;;;;;;;35.93;14.10;;;3.20;59.90;;;;;;5100976;28;20602;-78
2022/01/26 08:02:54;;;;;;;33.77;14.53;;;3.30;59.80;;;;;;5086741;28;20330;-78
2022/01/26 08:05:24;;;;;;;26.90;12.90;;;3.30;60.50;;;;;;5105454;28;20854;-78
2022/01/26 08:07:53;;;;;;;36.70;14.27;;;3.40;59.80;;;;;;5104058;28;20185;-78
2022/01/26 08:10:21;;;;;;;41.73;13.70;;;3.40;59.30;;;;;;5105194;28;20185;-78
2022/01/26 08:12:50;;;;;;;31.30;13.60;;;3.50;59.40;;;;;;5107449;28;20578;-78
2022/01/26 08:15:24;;;;;;;35.00;13.60;;;3.50;59.20;;;;;;5107611;28;20671;-80
2022/01/26 08:17:53;;;;;;;30.63;14.03;;;3.50;58.90;;;;;;5105295;28;20188;-81
2022/01/26 08:20:24;;;;;;;28.20;13.33;;;3.60;58.90;;;;;;5107002;28;20194;-81
2022/01/26 08:22:55;;;;;;;26.90;12.67;;;3.60;58.90;;;;;;5105707;28;20210;-82
2022/01/26 08:25:24;;;;;;;33.33;13.50;;;3.60;58.90;;;;;;5106192;28;20224;-81
2022/01/26 08:27:58;;;;;;;34.00;13.83;;;3.70;59.00;;;;;;5106686;28;20192;-80
2022/01/26 08:30:28;;;;;;;33.47;15.50;;;3.70;59.00;;;;;;5105878;28;20417;-80
2022/01/26 08:32:57;;;;;;;30.43;13.47;;;3.80;58.90;;;;;;5105670;28;20189;-81
2022/01/26 08:35:28;;;;;;;32.43;14.53;;;3.80;58.90;;;;;;5107191;28;20197;-81
2022/01/26 08:37:57;;;;;;;38.37;13.50;;;3.90;58.70;;;;;;5106847;28;20213;-81
2022/01/26 08:40:26;;;;;;;30.17;14.77;;;3.90;58.60;;;;;;5105719;28;20193;-81
2022/01/26 08:42:55;;;;;;;30.73;14.80;;;4.00;58.60;;;;;;5104879;28;20882;-81
2022/01/26 08:45:24;;;;;;;32.70;14.77;;;4.00;58.60;;;;;;5098232;28;20220;-81
2022/01/26 08:47:53;;;;;;;30.17;14.87;;;4.00;58.40;;;;;;5105728;28;20193;-81
2022/01/26 08:50:22;;;;;;;33.03;14.17;;;4.10;58.50;;;;;;5107143;28;20186;-81
2022/01/26 08:52:52;;;;;;;26.17;13.23;;;4.10;58.50;;;;;;5106944;28;20605;-80
2022/01/26 08:55:20;;;;;;;34.70;14.93;;;4.10;58.40;;;;;;5107173;28;20691;-82
2022/01/26 08:57:49;;;;;;;36.27;14.70;;;4.20;58.40;;;;;;5108333;28;20193;-81
2022/01/26 09:00:18;;;;;;;29.87;15.23;;;4.20;58.40;;;;;;5108435;28;20722;-81
2022/01/26 09:02:47;;;;;;;33.53;15.37;;;4.30;58.30;;;;;;5112586;28;20291;-81
2022/01/26 09:05:16;;;;;;;35.03;16.93;;;4.30;58.20;;;;;;5103742;28;20473;-79
2022/01/26 09:07:45;;;;;;;38.00;15.93;;;4.30;58.10;;;;;;5111079;28;20189;-79
2022/01/26 09:10:15;;;;;;;33.80;16.17;;;4.30;58.10;;;;;;5091152;28;20249;-79
2022/01/26 09:12:45;;;;;;;33.17;15.53;;;4.40;58.10;;;;;;5111415;28;20289;-78
2022/01/26 09:15:14;;;;;;;28.80;14.00;;;4.40;58.10;;;;;;5111138;28;20672;-79
2022/01/26 09:17:43;;;;;;;33.30;16.23;;;4.40;57.90;;;;;;5099267;28;20498;-79
2022/01/26 09:20:14;;;;;;;32.90;14.60;;;4.40;58.10;;;;;;5113421;28;20203;-80
2022/01/26 09:22:42;;;;;;;28.70;14.50;;;4.50;58.40;;;;;;5111388;28;20918;-79
2022/01/26 09:25:11;;;;;;;34.40;15.50;;;4.60;58.40;;;;;;5109481;28;20195;-79
2022/01/26 09:27:41;;;;;;;29.90;14.70;;;4.60;58.10;;;;;;5109672;28;20242;-79
2022/01/26 09:30:11;;;;;;;36.00;16.67;;;4.70;57.70;;;;;;5110015;28;20203;-79
2022/01/26 09:32:40;;;;;;;31.70;15.27;;;4.70;57.50;;;;;;5103097;28;20186;-79
2022/01/26 09:35:10;;;;;;;32.87;15.07;;;4.80;57.40;;;;;;5110764;28;20200;-79
2022/01/26 09:37:38;;;;;;;35.00;15.10;;;4.90;57.20;;;;;;5110166;28;20875;-80
2022/01/26 09:40:08;;;;;;;35.37;15.47;;;4.90;57.10;;;;;;5111679;28;20534;-79
2022/01/26 09:42:37;;;;;;;34.07;15.03;;;5.00;56.80;;;;;;5110235;28;20549;-80
2022/01/26 09:45:10;;;;;;;29.93;13.30;;;5.00;56.60;;;;;;5107584;28;20207;-79
2022/01/26 09:47:39;;;;;;;26.97;12.83;;;5.10;56.50;;;;;;5110554;28;20192;-79
2022/01/26 09:50:27;;;;;;;29.23;13.47;;;5.10;56.20;;;;;;5107058;28;20219;-79
2022/01/26 09:52:56;;;;;;;31.20;15.30;;;5.20;56.30;;;;;;5105016;28;20505;-79
2022/01/26 09:55:26;;;;;;;26.33;14.63;;;5.30;56.40;;;;;;5106720;28;20199;-80
2022/01/26 09:57:58;;;;;;;22.70;12.47;;;5.30;56.10;;;;;;5103748;28;20205;-81
2022/01/26 10:00:29;;;;;;;29.23;13.20;;;5.30;55.90;;;;;;5104765;28;20950;-79
2022/01/26 10:02:58;;;;;;;28.57;13.73;;;5.40;56.00;;;;;;5104434;28;20196;-81
2022/01/26 10:05:39;;;;;;;21.90;12.00;;;5.40;55.30;;;;;;5102928;28;20230;-80
2022/01/26 10:08:12;;;;;;;28.30;12.73;;;5.50;55.60;;;;;;5099842;28;20188;-80
2022/01/26 10:17:03;;;;;;;27.77;12.73;;;5.60;55.30;;;;;;5096045;28;20200;-80
2022/01/26 10:19:24;;;;;;;28.80;12.60;;;5.60;55.50;;;;;;5104887;28;20200;-79
2022/01/26 10:21:53;;;;;;;26.13;12.13;;;5.60;55.40;;;;;;5104609;28;20196;-76
2022/01/26 10:24:29;;;;;;;24.30;11.70;;;5.60;55.50;;;;;;5103885;28;20233;-78
2022/01/26 10:26:59;;;;;;;27.43;11.77;;;5.60;55.50;;;;;;5103598;28;20208;-78
2022/01/26 10:29:33;;;;;;;31.83;11.00;;;5.70;55.60;;;;;;5103046;28;20637;-77
2022/01/26 10:32:13;;;;;;;24.30;12.10;;;5.70;55.40;;;;;;5103209;28;20180;-78
2022/01/26 10:34:42;;;;;;;23.10;11.13;;;5.80;55.10;;;;;;5099555;28;20198;-78
2022/01/26 10:37:10;;;;;;;28.67;13.17;;;5.80;54.80;;;;;;5103466;28;20207;-77
2022/01/26 10:39:45;;;;;;;29.67;11.93;;;5.70;54.70;;;;;;5102949;28;20244;-77
2022/01/26 10:42:19;;;;;;;27.07;12.67;;;5.80;55.20;;;;;;5104139;28;20191;-78
2022/01/26 10:44:50;;;;;;;21.37;10.93;;;5.80;54.80;;;;;;5104615;28;20191;-79
2022/01/26 10:47:33;;;;;;;29.43;11.57;;;5.80;54.60;;;;;;5104958;28;20759;-78
2022/01/26 10:50:29;;;;;;;25.93;12.87;;;5.80;54.60;;;;;;5102703;28;20196;-78
2022/01/26 10:53:06;;;;;;;33.60;13.87;;;5.90;55.20;;;;;;5102290;28;20439;-76
2022/01/26 10:55:36;;;;;;;24.03;13.27;;;5.90;55.00;;;;;;5102770;28;20183;-77
2022/01/26 10:58:05;;;;;;;32.47;13.17;;;6.00;55.20;;;;;;5102813;28;20189;-75
2022/01/26 11:00:37;;;;;;;24.00;12.20;;;6.00;55.00;;;;;;5083596;28;20205;-75
2022/01/26 11:03:08;;;;;;;25.93;12.00;;;6.00;54.80;;;;;;5097607;28;20275;-75
2022/01/26 11:05:36;;;;;;;20.07;10.50;;;6.10;54.80;;;;;;5083772;28;20239;-75
2022/01/26 11:08:09;;;;;;;25.23;12.23;;;6.20;54.80;;;;;;5098877;28;20225;-75
2022/01/26 11:10:39;;;;;;;22.93;11.27;;;6.30;55.00;;;;;;5085738;28;20185;-75
2022/01/26 11:13:08;;;;;;;26.87;11.23;;;6.40;55.20;;;;;;5098570;28;20254;-79
2022/01/26 11:15:38;;;;;;;30.85;12.85;;;6.50;54.70;;;;;;5100925;28;20527;-78
2022/01/26 11:18:32;;;;;;;27.73;11.63;;;6.50;54.50;;;;;;5102931;28;20699;-78
2022/01/26 11:21:04;;;;;;;26.00;11.77;;;6.50;54.00;;;;;;5101938;28;20324;-78
2022/01/26 11:23:40;;;;;;;24.60;11.67;;;6.60;53.50;;;;;;5100100;28;20196;-78
2022/01/26 11:26:22;;;;;;;29.23;12.80;;;6.60;53.50;;;;;;5102912;28;20189;-79
2022/01/26 11:28:51;;;;;;;23.90;11.27;;;6.60;53.60;;;;;;5098092;28;20220;-78
2022/01/26 11:31:20;;;;;;;22.53;10.30;;;6.60;53.50;;;;;;5101525;28;20199;-80
2022/01/26 11:34:12;;;;;;;23.27;9.60;;;6.60;53.10;;;;;;5088459;28;20194;-79
2022/01/26 11:36:42;;;;;;;20.57;10.17;;;6.60;53.00;;;;;;5100080;28;20591;-80
2022/01/26 11:42:18;;;;;;;26.73;11.33;;;6.50;53.30;;;;;;5102234;28;20192;-79
2022/01/26 11:45:07;;;;;;;22.57;11.10;;;6.50;53.30;;;;;;5102747;28;20773;-78
2022/01/26 11:47:37;;;;;;;29.47;11.23;;;6.50;53.30;;;;;;5088286;28;20209;-78
2022/01/26 11:50:14;;;;;;;25.37;10.83;;;6.50;53.20;;;;;;5102294;28;20193;-78
2022/01/26 11:52:46;;;;;;;22.83;10.57;;;6.50;53.50;;;;;;5102334;28;20257;-78
2022/01/26 11:55:28;;;;;;;20.37;10.80;;;6.50;53.60;;;;;;5101394;28;20255;-78
2022/01/26 11:58:07;;;;;;;27.47;10.87;;;6.50;53.90;;;;;;5096632;28;20231;-78
2022/01/26 12:00:42;;;;;;;19.00;10.33;;;6.50;53.90;;;;;;5102720;28;20291;-78
2022/01/26 12:03:22;;;;;;;25.07;11.53;;;6.50;53.80;;;;;;5082871;28;20185;-78
2022/01/26 12:05:56;;;;;;;20.87;10.17;;;6.50;53.70;;;;;;5099049;28;20188;-78
2022/01/26 12:08:37;;;;;;;18.27;9.67;;;6.50;53.60;;;;;;5098409;28;20245;-77
2022/01/26 12:11:07;;;;;;;19.07;10.13;;;6.50;53.70;;;;;;5092106;28;20194;-77
2022/01/26 12:13:39;;;;;;;34.40;10.43;;;6.50;53.90;;;;;;5102595;28;20276;-79
2022/01/26 12:16:12;;;;;;;23.33;9.53;;;6.50;53.80;;;;;;5103215;28;20188;-78
2022/01/26 12:18:51;;;;;;;23.63;9.33;;;6.50;53.60;;;;;;5102334;28;20178;-78
2022/01/26 12:32:55;;;;;;;20.77;9.70;;;6.60;53.70;;;;;;5100981;28;20189;-78
2022/01/26 12:35:35;;;;;;;21.57;9.67;;;6.60;53.80;;;;;;5095962;28;20245;-79
2022/01/26 12:38:10;;;;;;;23.83;8.57;;;6.60;53.60;;;;;;5097443;28;20189;-79
2022/01/26 12:43:35;;;;;;;20.93;9.40;;;6.60;53.40;;;;;;5102196;28;20184;-79
2022/01/26 12:46:10;;;;;;;19.48;9.98;;;6.70;53.50;;;;;;5102562;28;20475;-78
2022/01/26 12:48:40;;;;;;;18.43;10.20;;;6.60;53.50;;;;;;5084164;28;20221;-78
2022/01/26 12:51:10;;;;;;;24.87;10.37;;;6.70;53.30;;;;;;5092901;28;20570;-78
2022/01/26 12:53:40;;;;;;;18.50;9.27;;;6.70;53.20;;;;;;5106178;28;20680;-79
2022/01/26 12:56:11;;;;;;;21.47;9.13;;;6.70;53.20;;;;;;5102204;28;20694;-78
2022/01/26 12:58:41;;;;;;;20.93;9.23;;;6.70;53.10;;;;;;5106001;28;20651;-78
2022/01/26 13:01:11;;;;;;;26.73;8.93;;;6.70;53.20;;;;;;5106024;28;20310;-79
2022/01/26 13:03:41;;;;;;;19.67;9.53;;;6.70;53.30;;;;;;5103395;28;20252;-78
2022/01/26 13:06:13;;;;;;;18.43;8.83;;;6.80;53.30;;;;;;5100744;28;20173;-77
2022/01/26 13:08:48;;;;;;;19.73;9.83;;;6.80;53.20;;;;;;5088127;28;20201;-79
2022/01/26 13:11:27;;;;;;;20.07;9.37;;;6.90;54.00;;;;;;5086914;28;20182;-77
2022/01/26 13:14:12;;;;;;;21.83;10.70;;;6.90;53.40;;;;;;5089340;28;20189;-78
2022/01/26 13:16:45;;;;;;;25.10;11.17;;;6.90;53.40;;;;;;5091334;28;20690;-77
2022/01/26 13:19:35;;;;;;;19.30;9.87;;;6.90;53.30;;;;;;5091952;28;20192;-77
2022/01/26 13:25:05;;;;;;;24.30;10.20;;;7.00;53.60;;;;;;5085161;28;20185;-78
2022/01/26 13:27:54;;;;;;;29.50;9.77;;;7.00;53.50;;;;;;5089237;28;20204;-78
2022/01/26 13:30:36;;;;;;;23.50;10.97;;;7.00;53.30;;;;;;5103952;28;20768;-78
2022/01/26 13:38:59;;;;;;;24.63;10.40;;;7.10;53.00;;;;;;5091127;28;20187;-77
2022/01/26 13:41:39;;;;;;;16.20;9.37;;;7.10;53.00;;;;;;5102148;28;20194;-78
2022/01/26 13:50:06;;;;;;;23.80;9.33;;;7.20;52.60;;;;;;5001512;28;20194;-78
2022/01/26 13:52:51;;;;;;;20.37;9.07;;;7.20;52.60;;;;;;5102624;28;20187;-78
2022/01/26 13:55:33;;;;;;;27.67;11.20;;;7.30;53.10;;;;;;5104554;28;20437;-78
2022/01/26 13:58:22;;;;;;;22.60;10.00;;;7.30;52.80;;;;;;5105157;28;20186;-77
2022/01/26 14:00:58;;;;;;;21.80;10.60;;;7.30;52.80;;;;;;5102609;28;20186;-78
2022/01/26 14:03:32;;;;;;;24.10;10.00;;;7.30;52.80;;;;;;5104163;28;20193;-77
2022/01/26 14:06:01;;;;;;;20.83;10.33;;;7.40;52.90;;;;;;5098877;28;20211;-77
2022/01/26 14:08:29;;;;;;;24.05;11.40;;;7.40;52.80;;;;;;5103356;28;20432;-77
2022/01/26 14:10:58;;;;;;;28.90;11.17;;;7.40;53.10;;;;;;5090444;28;20675;-77
2022/01/26 14:13:28;;;;;;;25.60;10.17;;;7.40;53.00;;;;;;5098197;28;20200;-76
2022/01/26 14:15:59;;;;;;;20.70;10.20;;;7.40;53.00;;;;;;5102219;28;20705;-77
2022/01/26 14:18:46;;;;;;;23.57;9.17;;;7.40;53.00;;;;;;5102388;28;20183;-77
2022/01/26 14:26:55;;;;;;;22.00;8.90;;;7.50;52.70;;;;;;5102043;28;20853;-77
2022/01/26 14:29:38;;;;;;;18.27;8.97;;;7.50;52.50;;;;;;5101071;28;20234;-77
2022/01/26 14:35:20;;;;;;;18.70;8.07;;;7.50;52.50;;;;;;5054409;28;20275;-77
2022/01/26 14:40:48;;;;;;;24.57;9.40;;;7.50;52.50;;;;;;5099312;28;20194;-77
2022/01/26 14:52:08;;;;;;;20.77;9.70;;;7.50;52.60;;;;;;5093977;28;20186;-78
2022/01/26 15:09:15;;;;;;;22.53;9.87;;;7.50;53.20;;;;;;5099257;28;20210;-78
2022/01/26 15:40:23;;;;;;;17.20;8.87;;;7.60;53.40;;;;;;5096596;28;20198;-77
2022/01/26 15:48:48;;;;;;;28.77;11.20;;;7.70;53.40;;;;;;5089523;28;20572;-78
2022/01/26 15:51:43;;;;;;;22.30;10.23;;;7.70;53.40;;;;;;5103793;28;20575;-77
2022/01/26 16:05:57;;;;;;;49.03;17.70;;;7.70;53.50;;;;;;5013813;28;20206;-76